ΕΜΥ, Εθνική Μετεωρολογική Υπηρεσία - Δελτία Καιρού, Προγνώσεις

ΑΕΡΟΝΑΥΤΙΛΙΑ

GREEK AIRPORTS CODES

TAF LGMG 150400Z 1506/1515 33009KT 9999 SCT015 BKN025 PROB40 1506/1508 5000 BR PROB30 TEMPO 1506/1510 5000 RA FEW018 BKN025=

EUROPEAN AIRPORTS CODES

LFPO 150600Z 24012KT CAVOK 10/07 Q1001 NOSIG=